sensor_id;sensor_type;location;lat;lon;timestamp;temperature;humidity
20200;DHT22;36284;37.236;-121.934;2024-03-02T00:00:11;13.40;99.90
20200;DHT22;36284;37.236;-121.934;2024-03-02T00:02:43;13.40;99.90
20200;DHT22;36284;37.236;-121.934;2024-03-02T00:05:12;13.50;99.90
20200;DHT22;36284;37.236;-121.934;2024-03-02T00:07:45;13.50;99.90
20200;DHT22;36284;37.236;-121.934;2024-03-02T00:10:19;13.30;99.90
20200;DHT22;36284;37.236;-121.934;2024-03-02T00:12:47;12.90;99.90
20200;DHT22;36284;37.236;-121.934;2024-03-02T00:15:47;12.80;99.90
20200;DHT22;36284;37.236;-121.934;2024-03-02T00:18:31;13.00;99.90
20200;DHT22;36284;37.236;-121.934;2024-03-02T00:20:59;12.90;99.90
20200;DHT22;36284;37.236;-121.934;2024-03-02T00:23:33;12.90;99.90
20200;DHT22;36284;37.236;-121.934;2024-03-02T00:26:01;13.00;99.90
20200;DHT22;36284;37.236;-121.934;2024-03-02T00:28:33;13.00;99.90
20200;DHT22;36284;37.236;-121.934;2024-03-02T00:31:07;13.00;99.90
20200;DHT22;36284;37.236;-121.934;2024-03-02T00:33:47;12.80;99.90
20200;DHT22;36284;37.236;-121.934;2024-03-02T00:36:25;12.60;99.90
20200;DHT22;36284;37.236;-121.934;2024-03-02T00:38:55;12.50;99.90
20200;DHT22;36284;37.236;-121.934;2024-03-02T00:41:30;12.50;99.90
20200;DHT22;36284;37.236;-121.934;2024-03-02T00:46:34;12.50;99.90
20200;DHT22;36284;37.236;-121.934;2024-03-02T00:49:12;12.50;99.90
20200;DHT22;36284;37.236;-121.934;2024-03-02T00:51:51;12.40;99.90
20200;DHT22;36284;37.236;-121.934;2024-03-02T00:54:23;12.50;99.90
20200;DHT22;36284;37.236;-121.934;2024-03-02T00:56:51;12.40;99.90
20200;DHT22;36284;37.236;-121.934;2024-03-02T00:59:18;12.40;99.90
20200;DHT22;36284;37.236;-121.934;2024-03-02T01:01:45;12.30;99.90
20200;DHT22;36284;37.236;-121.934;2024-03-02T01:04:12;12.10;99.90
20200;DHT22;36284;37.236;-121.934;2024-03-02T01:06:40;12.20;99.90
20200;DHT22;36284;37.236;-121.934;2024-03-02T01:09:07;12.00;99.90
20200;DHT22;36284;37.236;-121.934;2024-03-02T01:11:34;12.00;99.90
20200;DHT22;36284;37.236;-121.934;2024-03-02T01:14:01;12.00;99.90
20200;DHT22;36284;37.236;-121.934;2024-03-02T01:16:28;11.90;99.90
20200;DHT22;36284;37.236;-121.934;2024-03-02T01:18:55;11.80;99.90
20200;DHT22;36284;37.236;-121.934;2024-03-02T01:21:22;11.90;99.90
20200;DHT22;36284;37.236;-121.934;2024-03-02T01:23:49;11.90;99.90
20200;DHT22;36284;37.236;-121.934;2024-03-02T01:26:16;11.90;99.90
20200;DHT22;36284;37.236;-121.934;2024-03-02T01:28:43;12.20;99.90
20200;DHT22;36284;37.236;-121.934;2024-03-02T01:31:10;12.00;99.90
20200;DHT22;36284;37.236;-121.934;2024-03-02T01:33:37;12.00;99.90
20200;DHT22;36284;37.236;-121.934;2024-03-02T01:36:04;12.00;99.90
20200;DHT22;36284;37.236;-121.934;2024-03-02T01:38:31;12.00;99.90
20200;DHT22;36284;37.236;-121.934;2024-03-02T01:40:59;12.10;99.90
20200;DHT22;36284;37.236;-121.934;2024-03-02T01:43:26;12.00;99.90
20200;DHT22;36284;37.236;-121.934;2024-03-02T01:45:53;12.00;99.90
20200;DHT22;36284;37.236;-121.934;2024-03-02T01:48:20;11.90;99.90
20200;DHT22;36284;37.236;-121.934;2024-03-02T01:50:47;11.80;99.90
20200;DHT22;36284;37.236;-121.934;2024-03-02T01:53:13;11.90;99.90
20200;DHT22;36284;37.236;-121.934;2024-03-02T01:55:40;11.90;99.90
20200;DHT22;36284;37.236;-121.934;2024-03-02T01:58:07;11.90;99.90
20200;DHT22;36284;37.236;-121.934;2024-03-02T02:00:34;11.90;99.90
20200;DHT22;36284;37.236;-121.934;2024-03-02T02:03:02;12.00;99.90
20200;DHT22;36284;37.236;-121.934;2024-03-02T02:05:29;11.90;99.90
20200;DHT22;36284;37.236;-121.934;2024-03-02T02:07:56;11.90;99.90
20200;DHT22;36284;37.236;-121.934;2024-03-02T02:10:25;12.00;99.90
20200;DHT22;36284;37.236;-121.934;2024-03-02T02:12:52;12.00;99.90
20200;DHT22;36284;37.236;-121.934;2024-03-02T02:15:29;12.00;99.90
20200;DHT22;36284;37.236;-121.934;2024-03-02T02:17:58;11.90;99.90
20200;DHT22;36284;37.236;-121.934;2024-03-02T02:20:25;11.90;99.90
20200;DHT22;36284;37.236;-121.934;2024-03-02T02:23:02;11.90;99.90
20200;DHT22;36284;37.236;-121.934;2024-03-02T02:25:30;12.00;99.90
20200;DHT22;36284;37.236;-121.934;2024-03-02T02:27:57;12.00;99.90
20200;DHT22;36284;37.236;-121.934;2024-03-02T02:30:31;11.90;99.90
20200;DHT22;36284;37.236;-121.934;2024-03-02T02:32:59;11.70;99.90
20200;DHT22;36284;37.236;-121.934;2024-03-02T02:35:26;11.90;99.90
20200;DHT22;36284;37.236;-121.934;2024-03-02T02:37:54;11.80;99.90
20200;DHT22;36284;37.236;-121.934;2024-03-02T02:40:21;11.70;99.90
20200;DHT22;36284;37.236;-121.934;2024-03-02T02:42:49;11.80;99.90
20200;DHT22;36284;37.236;-121.934;2024-03-02T02:45:16;11.80;99.90
20200;DHT22;36284;37.236;-121.934;2024-03-02T02:47:43;11.80;99.90
20200;DHT22;36284;37.236;-121.934;2024-03-02T02:50:12;11.80;99.90
20200;DHT22;36284;37.236;-121.934;2024-03-02T02:52:40;11.70;99.90
20200;DHT22;36284;37.236;-121.934;2024-03-02T02:55:09;11.60;99.90
20200;DHT22;36284;37.236;-121.934;2024-03-02T02:57:37;11.70;99.90
20200;DHT22;36284;37.236;-121.934;2024-03-02T03:00:06;11.70;99.90
20200;DHT22;36284;37.236;-121.934;2024-03-02T03:02:42;11.70;99.90
20200;DHT22;36284;37.236;-121.934;2024-03-02T03:05:10;11.50;99.90
20200;DHT22;36284;37.236;-121.934;2024-03-02T03:07:39;11.50;99.90
20200;DHT22;36284;37.236;-121.934;2024-03-02T03:10:07;11.50;99.90
20200;DHT22;36284;37.236;-121.934;2024-03-02T03:12:35;11.60;99.90
20200;DHT22;36284;37.236;-121.934;2024-03-02T03:15:03;11.60;99.90
20200;DHT22;36284;37.236;-121.934;2024-03-02T03:17:31;11.50;99.90
20200;DHT22;36284;37.236;-121.934;2024-03-02T03:19:58;11.60;99.90
20200;DHT22;36284;37.236;-121.934;2024-03-02T03:22:24;11.70;99.90
20200;DHT22;36284;37.236;-121.934;2024-03-02T03:24:51;11.80;99.90
20200;DHT22;36284;37.236;-121.934;2024-03-02T03:27:18;11.70;99.90
20200;DHT22;36284;37.236;-121.934;2024-03-02T03:29:48;11.60;99.90
20200;DHT22;36284;37.236;-121.934;2024-03-02T03:32:15;11.60;99.90
20200;DHT22;36284;37.236;-121.934;2024-03-02T03:34:43;11.60;99.90
20200;DHT22;36284;37.236;-121.934;2024-03-02T03:37:10;11.70;99.90
20200;DHT22;36284;37.236;-121.934;2024-03-02T03:39:37;11.80;99.90
20200;DHT22;36284;37.236;-121.934;2024-03-02T03:42:04;11.80;99.90
20200;DHT22;36284;37.236;-121.934;2024-03-02T03:44:31;11.90;99.90
20200;DHT22;36284;37.236;-121.934;2024-03-02T03:46:58;11.90;99.90
20200;DHT22;36284;37.236;-121.934;2024-03-02T03:49:25;11.90;99.90
20200;DHT22;36284;37.236;-121.934;2024-03-02T03:51:52;11.80;99.90
20200;DHT22;36284;37.236;-121.934;2024-03-02T03:54:19;11.80;99.90
20200;DHT22;36284;37.236;-121.934;2024-03-02T03:56:46;11.80;99.90
20200;DHT22;36284;37.236;-121.934;2024-03-02T03:59:13;11.80;99.90
20200;DHT22;36284;37.236;-121.934;2024-03-02T04:01:40;11.70;99.90
20200;DHT22;36284;37.236;-121.934;2024-03-02T04:04:07;11.60;99.90
20200;DHT22;36284;37.236;-121.934;2024-03-02T04:06:33;11.60;99.90
20200;DHT22;36284;37.236;-121.934;2024-03-02T04:09:00;11.70;99.90
20200;DHT22;36284;37.236;-121.934;2024-03-02T04:11:27;11.70;99.90
20200;DHT22;36284;37.236;-121.934;2024-03-02T04:13:54;11.80;99.90
20200;DHT22;36284;37.236;-121.934;2024-03-02T04:16:21;11.70;99.90
20200;DHT22;36284;37.236;-121.934;2024-03-02T04:18:49;11.70;99.90
20200;DHT22;36284;37.236;-121.934;2024-03-02T04:21:16;11.60;99.90
20200;DHT22;36284;37.236;-121.934;2024-03-02T04:23:43;11.50;99.90
20200;DHT22;36284;37.236;-121.934;2024-03-02T04:26:10;11.40;99.90
20200;DHT22;36284;37.236;-121.934;2024-03-02T04:28:36;11.40;99.90
20200;DHT22;36284;37.236;-121.934;2024-03-02T04:31:03;11.40;99.90
20200;DHT22;36284;37.236;-121.934;2024-03-02T04:33:30;11.50;99.90
20200;DHT22;36284;37.236;-121.934;2024-03-02T04:35:57;11.50;99.90
20200;DHT22;36284;37.236;-121.934;2024-03-02T04:38:24;11.40;99.90
20200;DHT22;36284;37.236;-121.934;2024-03-02T04:40:51;11.40;99.90
20200;DHT22;36284;37.236;-121.934;2024-03-02T04:43:18;11.60;99.90
20200;DHT22;36284;37.236;-121.934;2024-03-02T04:45:45;11.60;99.90
20200;DHT22;36284;37.236;-121.934;2024-03-02T04:48:12;11.60;99.90
20200;DHT22;36284;37.236;-121.934;2024-03-02T04:50:40;11.60;99.90
20200;DHT22;36284;37.236;-121.934;2024-03-02T04:53:07;11.60;99.90
20200;DHT22;36284;37.236;-121.934;2024-03-02T04:55:34;11.50;99.90
20200;DHT22;36284;37.236;-121.934;2024-03-02T04:58:01;11.60;99.90
20200;DHT22;36284;37.236;-121.934;2024-03-02T05:00:28;11.60;99.90
20200;DHT22;36284;37.236;-121.934;2024-03-02T05:02:55;11.50;99.90
20200;DHT22;36284;37.236;-121.934;2024-03-02T05:05:21;11.00;99.90
20200;DHT22;36284;37.236;-121.934;2024-03-02T05:07:48;10.50;99.90
20200;DHT22;36284;37.236;-121.934;2024-03-02T05:10:15;10.50;99.90
20200;DHT22;36284;37.236;-121.934;2024-03-02T05:12:42;9.50;99.90
20200;DHT22;36284;37.236;-121.934;2024-03-02T05:15:11;10.70;99.90
20200;DHT22;36284;37.236;-121.934;2024-03-02T05:17:39;10.80;99.90
20200;DHT22;36284;37.236;-121.934;2024-03-02T05:20:07;11.10;99.90
20200;DHT22;36284;37.236;-121.934;2024-03-02T05:22:35;11.20;99.90
20200;DHT22;36284;37.236;-121.934;2024-03-02T05:25:02;11.30;99.90
20200;DHT22;36284;37.236;-121.934;2024-03-02T05:27:30;11.50;99.90
20200;DHT22;36284;37.236;-121.934;2024-03-02T05:29:59;10.90;99.90
20200;DHT22;36284;37.236;-121.934;2024-03-02T05:32:26;11.40;99.90
20200;DHT22;36284;37.236;-121.934;2024-03-02T05:34:53;11.50;99.90
20200;DHT22;36284;37.236;-121.934;2024-03-02T05:37:20;11.30;99.90
20200;DHT22;36284;37.236;-121.934;2024-03-02T05:39:47;11.30;99.90
20200;DHT22;36284;37.236;-121.934;2024-03-02T05:42:14;11.20;99.90
20200;DHT22;36284;37.236;-121.934;2024-03-02T05:44:41;11.20;99.90
20200;DHT22;36284;37.236;-121.934;2024-03-02T05:47:08;11.30;99.90
20200;DHT22;36284;37.236;-121.934;2024-03-02T05:49:35;11.20;99.90
20200;DHT22;36284;37.236;-121.934;2024-03-02T05:52:02;11.10;99.90
20200;DHT22;36284;37.236;-121.934;2024-03-02T05:54:29;11.10;99.90
20200;DHT22;36284;37.236;-121.934;2024-03-02T05:56:56;11.10;99.90
20200;DHT22;36284;37.236;-121.934;2024-03-02T05:59:23;11.10;99.90
20200;DHT22;36284;37.236;-121.934;2024-03-02T06:01:50;11.10;99.90
20200;DHT22;36284;37.236;-121.934;2024-03-02T06:04:18;10.90;99.90
20200;DHT22;36284;37.236;-121.934;2024-03-02T06:06:45;10.90;99.90
20200;DHT22;36284;37.236;-121.934;2024-03-02T06:09:12;10.80;99.90
20200;DHT22;36284;37.236;-121.934;2024-03-02T06:11:40;10.70;99.90
20200;DHT22;36284;37.236;-121.934;2024-03-02T06:14:08;10.60;99.90
20200;DHT22;36284;37.236;-121.934;2024-03-02T06:16:35;10.60;99.90
20200;DHT22;36284;37.236;-121.934;2024-03-02T06:19:02;10.50;99.90
20200;DHT22;36284;37.236;-121.934;2024-03-02T06:21:29;10.50;99.90
20200;DHT22;36284;37.236;-121.934;2024-03-02T06:23:56;10.50;99.90
20200;DHT22;36284;37.236;-121.934;2024-03-02T06:26:23;10.60;99.90
20200;DHT22;36284;37.236;-121.934;2024-03-02T06:28:50;10.60;99.90
20200;DHT22;36284;37.236;-121.934;2024-03-02T06:31:17;10.60;99.90
20200;DHT22;36284;37.236;-121.934;2024-03-02T06:33:44;10.60;99.90
20200;DHT22;36284;37.236;-121.934;2024-03-02T06:36:11;10.60;99.90
20200;DHT22;36284;37.236;-121.934;2024-03-02T06:38:38;10.60;99.90
20200;DHT22;36284;37.236;-121.934;2024-03-02T06:41:07;10.60;99.90
20200;DHT22;36284;37.236;-121.934;2024-03-02T06:43:34;10.70;99.90
20200;DHT22;36284;37.236;-121.934;2024-03-02T06:46:01;10.70;99.90
20200;DHT22;36284;37.236;-121.934;2024-03-02T06:48:28;10.60;99.90
20200;DHT22;36284;37.236;-121.934;2024-03-02T06:50:56;10.50;99.90
20200;DHT22;36284;37.236;-121.934;2024-03-02T06:53:24;10.40;99.90
20200;DHT22;36284;37.236;-121.934;2024-03-02T06:55:51;10.40;99.90
20200;DHT22;36284;37.236;-121.934;2024-03-02T06:58:18;10.40;99.90
20200;DHT22;36284;37.236;-121.934;2024-03-02T07:00:45;10.40;99.90
20200;DHT22;36284;37.236;-121.934;2024-03-02T07:03:12;10.30;99.90
20200;DHT22;36284;37.236;-121.934;2024-03-02T07:05:40;10.30;99.90
20200;DHT22;36284;37.236;-121.934;2024-03-02T07:08:07;10.40;99.90
20200;DHT22;36284;37.236;-121.934;2024-03-02T07:10:34;10.40;99.90
20200;DHT22;36284;37.236;-121.934;2024-03-02T07:13:01;10.40;99.90
20200;DHT22;36284;37.236;-121.934;2024-03-02T07:15:28;10.40;99.90
20200;DHT22;36284;37.236;-121.934;2024-03-02T07:17:55;10.40;99.90
20200;DHT22;36284;37.236;-121.934;2024-03-02T07:20:22;10.40;99.90
20200;DHT22;36284;37.236;-121.934;2024-03-02T07:22:49;10.50;99.90
20200;DHT22;36284;37.236;-121.934;2024-03-02T07:25:16;10.40;99.90
20200;DHT22;36284;37.236;-121.934;2024-03-02T07:27:43;10.50;99.90
20200;DHT22;36284;37.236;-121.934;2024-03-02T07:30:14;10.50;99.90
20200;DHT22;36284;37.236;-121.934;2024-03-02T07:32:44;11.40;99.90
20200;DHT22;36284;37.236;-121.934;2024-03-02T07:35:12;10.50;99.90
20200;DHT22;36284;37.236;-121.934;2024-03-02T07:37:42;10.50;99.90
20200;DHT22;36284;37.236;-121.934;2024-03-02T07:40:09;10.60;99.90
20200;DHT22;36284;37.236;-121.934;2024-03-02T07:42:40;10.70;99.90
20200;DHT22;36284;37.236;-121.934;2024-03-02T07:45:08;10.60;99.90
20200;DHT22;36284;37.236;-121.934;2024-03-02T07:47:47;10.40;99.90
20200;DHT22;36284;37.236;-121.934;2024-03-02T07:50:26;10.40;99.90
20200;DHT22;36284;37.236;-121.934;2024-03-02T07:52:53;10.50;99.90
20200;DHT22;36284;37.236;-121.934;2024-03-02T07:55:20;10.50;99.90
20200;DHT22;36284;37.236;-121.934;2024-03-02T07:57:47;10.50;99.90
20200;DHT22;36284;37.236;-121.934;2024-03-02T08:00:14;10.60;99.90
20200;DHT22;36284;37.236;-121.934;2024-03-02T08:02:42;10.60;99.90
20200;DHT22;36284;37.236;-121.934;2024-03-02T08:05:09;10.70;99.90
20200;DHT22;36284;37.236;-121.934;2024-03-02T08:07:36;10.60;99.90
20200;DHT22;36284;37.236;-121.934;2024-03-02T08:10:03;10.70;99.90
20200;DHT22;36284;37.236;-121.934;2024-03-02T08:12:30;10.50;99.90
20200;DHT22;36284;37.236;-121.934;2024-03-02T08:15:00;10.50;99.90
20200;DHT22;36284;37.236;-121.934;2024-03-02T08:17:27;10.50;99.90
20200;DHT22;36284;37.236;-121.934;2024-03-02T08:19:54;10.40;99.90
20200;DHT22;36284;37.236;-121.934;2024-03-02T08:22:21;10.40;99.90
20200;DHT22;36284;37.236;-121.934;2024-03-02T08:24:48;10.50;99.90
20200;DHT22;36284;37.236;-121.934;2024-03-02T08:27:15;10.40;99.90
20200;DHT22;36284;37.236;-121.934;2024-03-02T08:29:42;10.40;99.90
20200;DHT22;36284;37.236;-121.934;2024-03-02T08:32:09;10.30;99.90
20200;DHT22;36284;37.236;-121.934;2024-03-02T08:34:36;10.20;99.90
20200;DHT22;36284;37.236;-121.934;2024-03-02T08:37:03;10.20;99.90
20200;DHT22;36284;37.236;-121.934;2024-03-02T08:39:31;10.20;99.90
20200;DHT22;36284;37.236;-121.934;2024-03-02T08:41:58;10.10;99.90
20200;DHT22;36284;37.236;-121.934;2024-03-02T08:44:25;10.20;99.90
20200;DHT22;36284;37.236;-121.934;2024-03-02T08:46:52;10.30;99.90
20200;DHT22;36284;37.236;-121.934;2024-03-02T08:49:19;10.30;99.90
20200;DHT22;36284;37.236;-121.934;2024-03-02T08:51:46;10.20;99.90
20200;DHT22;36284;37.236;-121.934;2024-03-02T08:54:23;10.20;99.90
20200;DHT22;36284;37.236;-121.934;2024-03-02T08:56:50;10.20;99.90
20200;DHT22;36284;37.236;-121.934;2024-03-02T08:59:17;10.00;99.90
20200;DHT22;36284;37.236;-121.934;2024-03-02T09:01:44;10.00;99.90
20200;DHT22;36284;37.236;-121.934;2024-03-02T09:04:11;10.10;99.90
20200;DHT22;36284;37.236;-121.934;2024-03-02T09:06:38;10.10;99.90
20200;DHT22;36284;37.236;-121.934;2024-03-02T09:09:05;10.10;99.90
20200;DHT22;36284;37.236;-121.934;2024-03-02T09:11:33;10.20;99.90
20200;DHT22;36284;37.236;-121.934;2024-03-02T09:14:00;10.20;99.90
20200;DHT22;36284;37.236;-121.934;2024-03-02T09:16:27;10.20;99.90
20200;DHT22;36284;37.236;-121.934;2024-03-02T09:18:57;10.10;99.90
20200;DHT22;36284;37.236;-121.934;2024-03-02T09:21:24;10.00;99.90
20200;DHT22;36284;37.236;-121.934;2024-03-02T09:23:51;9.90;99.90
20200;DHT22;36284;37.236;-121.934;2024-03-02T09:26:18;10.00;99.90
20200;DHT22;36284;37.236;-121.934;2024-03-02T09:28:47;9.90;99.90
20200;DHT22;36284;37.236;-121.934;2024-03-02T09:31:14;10.00;99.90
20200;DHT22;36284;37.236;-121.934;2024-03-02T09:33:40;9.70;99.90
20200;DHT22;36284;37.236;-121.934;2024-03-02T09:36:20;9.70;99.90
20200;DHT22;36284;37.236;-121.934;2024-03-02T09:38:47;9.60;99.90
20200;DHT22;36284;37.236;-121.934;2024-03-02T09:41:14;9.50;99.90
20200;DHT22;36284;37.236;-121.934;2024-03-02T09:43:41;9.50;99.90
20200;DHT22;36284;37.236;-121.934;2024-03-02T09:46:09;9.60;99.90
20200;DHT22;36284;37.236;-121.934;2024-03-02T09:48:37;9.60;99.90
20200;DHT22;36284;37.236;-121.934;2024-03-02T09:51:05;9.60;99.90
20200;DHT22;36284;37.236;-121.934;2024-03-02T09:53:33;9.70;99.90
20200;DHT22;36284;37.236;-121.934;2024-03-02T09:56:01;9.60;99.90
20200;DHT22;36284;37.236;-121.934;2024-03-02T09:58:28;9.60;99.90
20200;DHT22;36284;37.236;-121.934;2024-03-02T10:00:55;9.60;99.90
20200;DHT22;36284;37.236;-121.934;2024-03-02T10:03:24;9.50;99.90
20200;DHT22;36284;37.236;-121.934;2024-03-02T10:05:51;9.50;99.90
20200;DHT22;36284;37.236;-121.934;2024-03-02T10:08:18;9.40;99.90
20200;DHT22;36284;37.236;-121.934;2024-03-02T10:10:45;9.50;99.90
20200;DHT22;36284;37.236;-121.934;2024-03-02T10:13:13;9.40;99.90
20200;DHT22;36284;37.236;-121.934;2024-03-02T10:15:41;9.40;99.90
20200;DHT22;36284;37.236;-121.934;2024-03-02T10:18:12;9.40;99.90
20200;DHT22;36284;37.236;-121.934;2024-03-02T10:20:40;9.40;99.90
20200;DHT22;36284;37.236;-121.934;2024-03-02T10:23:14;9.40;99.90
20200;DHT22;36284;37.236;-121.934;2024-03-02T10:25:43;9.50;99.90
20200;DHT22;36284;37.236;-121.934;2024-03-02T10:28:10;9.40;99.90
20200;DHT22;36284;37.236;-121.934;2024-03-02T10:30:37;9.20;99.90
20200;DHT22;36284;37.236;-121.934;2024-03-02T10:33:06;9.20;99.90
20200;DHT22;36284;37.236;-121.934;2024-03-02T10:35:33;9.10;99.90
20200;DHT22;36284;37.236;-121.934;2024-03-02T10:38:04;9.20;99.90
20200;DHT22;36284;37.236;-121.934;2024-03-02T10:40:32;9.20;99.90
20200;DHT22;36284;37.236;-121.934;2024-03-02T10:43:01;9.20;99.90
20200;DHT22;36284;37.236;-121.934;2024-03-02T10:45:30;9.20;99.90
20200;DHT22;36284;37.236;-121.934;2024-03-02T10:47:57;9.10;99.90
20200;DHT22;36284;37.236;-121.934;2024-03-02T10:50:25;9.10;99.90
20200;DHT22;36284;37.236;-121.934;2024-03-02T10:52:51;9.10;99.90
20200;DHT22;36284;37.236;-121.934;2024-03-02T10:55:18;9.10;99.90
20200;DHT22;36284;37.236;-121.934;2024-03-02T10:57:53;9.10;99.90
20200;DHT22;36284;37.236;-121.934;2024-03-02T11:00:21;9.10;99.90
20200;DHT22;36284;37.236;-121.934;2024-03-02T11:02:57;9.10;99.90
20200;DHT22;36284;37.236;-121.934;2024-03-02T11:05:31;9.20;99.90
20200;DHT22;36284;37.236;-121.934;2024-03-02T11:08:02;9.10;99.90
20200;DHT22;36284;37.236;-121.934;2024-03-02T11:10:53;9.00;99.90
20200;DHT22;36284;37.236;-121.934;2024-03-02T11:13:30;9.00;99.90
20200;DHT22;36284;37.236;-121.934;2024-03-02T11:16:09;8.90;99.90
20200;DHT22;36284;37.236;-121.934;2024-03-02T11:18:40;8.00;99.90
20200;DHT22;36284;37.236;-121.934;2024-03-02T11:21:08;8.80;99.90
20200;DHT22;36284;37.236;-121.934;2024-03-02T11:23:35;8.90;99.90
20200;DHT22;36284;37.236;-121.934;2024-03-02T11:26:21;8.90;99.90
20200;DHT22;36284;37.236;-121.934;2024-03-02T11:28:49;8.80;99.90
20200;DHT22;36284;37.236;-121.934;2024-03-02T11:31:16;8.80;99.90
20200;DHT22;36284;37.236;-121.934;2024-03-02T11:33:43;8.70;99.90
20200;DHT22;36284;37.236;-121.934;2024-03-02T11:36:10;8.70;99.90
20200;DHT22;36284;37.236;-121.934;2024-03-02T11:38:37;8.40;99.90
20200;DHT22;36284;37.236;-121.934;2024-03-02T11:41:07;8.70;99.90
20200;DHT22;36284;37.236;-121.934;2024-03-02T11:43:38;8.60;99.90
20200;DHT22;36284;37.236;-121.934;2024-03-02T11:46:06;8.40;99.90
20200;DHT22;36284;37.236;-121.934;2024-03-02T11:48:36;8.50;99.90
20200;DHT22;36284;37.236;-121.934;2024-03-02T11:51:04;8.40;99.90
20200;DHT22;36284;37.236;-121.934;2024-03-02T11:53:31;8.60;99.90
20200;DHT22;36284;37.236;-121.934;2024-03-02T11:56:02;8.50;99.90
20200;DHT22;36284;37.236;-121.934;2024-03-02T11:58:29;8.40;99.90
20200;DHT22;36284;37.236;-121.934;2024-03-02T12:00:57;8.40;99.90
20200;DHT22;36284;37.236;-121.934;2024-03-02T12:03:25;8.40;99.90
20200;DHT22;36284;37.236;-121.934;2024-03-02T12:05:55;8.30;99.90
20200;DHT22;36284;37.236;-121.934;2024-03-02T12:08:22;8.20;99.90
20200;DHT22;36284;37.236;-121.934;2024-03-02T12:10:59;8.20;99.90
20200;DHT22;36284;37.236;-121.934;2024-03-02T12:13:29;8.10;99.90
20200;DHT22;36284;37.236;-121.934;2024-03-02T12:15:56;8.10;99.90
20200;DHT22;36284;37.236;-121.934;2024-03-02T12:18:24;8.30;99.90
20200;DHT22;36284;37.236;-121.934;2024-03-02T12:20:52;8.30;99.90
20200;DHT22;36284;37.236;-121.934;2024-03-02T12:23:19;8.20;99.90
20200;DHT22;36284;37.236;-121.934;2024-03-02T12:38:03;7.90;99.90
20200;DHT22;36284;37.236;-121.934;2024-03-02T12:40:31;8.00;99.90
20200;DHT22;36284;37.236;-121.934;2024-03-02T12:42:58;8.00;99.90
20200;DHT22;36284;37.236;-121.934;2024-03-02T12:45:25;7.90;99.90
20200;DHT22;36284;37.236;-121.934;2024-03-02T12:47:52;7.90;99.90
20200;DHT22;36284;37.236;-121.934;2024-03-02T12:50:19;7.90;99.90
20200;DHT22;36284;37.236;-121.934;2024-03-02T12:52:56;7.90;99.90
20200;DHT22;36284;37.236;-121.934;2024-03-02T12:55:23;8.00;99.90
20200;DHT22;36284;37.236;-121.934;2024-03-02T12:57:51;8.00;99.90
20200;DHT22;36284;37.236;-121.934;2024-03-02T13:00:19;7.90;99.90
20200;DHT22;36284;37.236;-121.934;2024-03-02T13:02:47;7.80;99.90
20200;DHT22;36284;37.236;-121.934;2024-03-02T13:15:06;7.50;99.90
20200;DHT22;36284;37.236;-121.934;2024-03-02T13:17:35;7.70;99.90
20200;DHT22;36284;37.236;-121.934;2024-03-02T13:20:03;7.60;99.90
20200;DHT22;36284;37.236;-121.934;2024-03-02T13:22:37;7.50;99.90
20200;DHT22;36284;37.236;-121.934;2024-03-02T13:25:04;7.50;99.90
20200;DHT22;36284;37.236;-121.934;2024-03-02T13:27:32;7.60;99.90
20200;DHT22;36284;37.236;-121.934;2024-03-02T13:29:59;7.50;99.90
20200;DHT22;36284;37.236;-121.934;2024-03-02T13:32:26;7.50;99.90
20200;DHT22;36284;37.236;-121.934;2024-03-02T13:34:53;7.60;99.90
20200;DHT22;36284;37.236;-121.934;2024-03-02T13:37:23;7.60;99.90
20200;DHT22;36284;37.236;-121.934;2024-03-02T13:39:50;7.70;99.90
20200;DHT22;36284;37.236;-121.934;2024-03-02T13:42:17;7.70;99.90
20200;DHT22;36284;37.236;-121.934;2024-03-02T13:44:44;7.70;99.90
20200;DHT22;36284;37.236;-121.934;2024-03-02T13:47:17;7.70;99.90
20200;DHT22;36284;37.236;-121.934;2024-03-02T13:49:44;7.70;99.90
20200;DHT22;36284;37.236;-121.934;2024-03-02T13:52:13;7.90;99.90
20200;DHT22;36284;37.236;-121.934;2024-03-02T13:54:44;7.90;99.90
20200;DHT22;36284;37.236;-121.934;2024-03-02T13:57:12;7.90;99.90
20200;DHT22;36284;37.236;-121.934;2024-03-02T13:59:40;7.70;99.90
20200;DHT22;36284;37.236;-121.934;2024-03-02T14:02:07;7.70;99.90
20200;DHT22;36284;37.236;-121.934;2024-03-02T14:04:35;7.70;99.90
20200;DHT22;36284;37.236;-121.934;2024-03-02T14:07:03;7.60;99.90
20200;DHT22;36284;37.236;-121.934;2024-03-02T14:09:30;7.60;99.90
20200;DHT22;36284;37.236;-121.934;2024-03-02T14:11:57;7.60;99.90
20200;DHT22;36284;37.236;-121.934;2024-03-02T14:14:27;7.60;99.90
20200;DHT22;36284;37.236;-121.934;2024-03-02T14:17:00;7.60;99.90
20200;DHT22;36284;37.236;-121.934;2024-03-02T14:19:32;7.50;99.90
20200;DHT22;36284;37.236;-121.934;2024-03-02T14:21:59;7.40;99.90
20200;DHT22;36284;37.236;-121.934;2024-03-02T14:24:26;7.40;99.90
20200;DHT22;36284;37.236;-121.934;2024-03-02T14:26:55;7.40;99.90
20200;DHT22;36284;37.236;-121.934;2024-03-02T14:29:24;7.30;99.90
20200;DHT22;36284;37.236;-121.934;2024-03-02T14:31:51;7.30;99.90
20200;DHT22;36284;37.236;-121.934;2024-03-02T14:34:17;7.20;99.90
20200;DHT22;36284;37.236;-121.934;2024-03-02T14:36:44;7.10;99.90
20200;DHT22;36284;37.236;-121.934;2024-03-02T14:39:11;7.10;99.90
20200;DHT22;36284;37.236;-121.934;2024-03-02T14:41:38;7.00;99.90
20200;DHT22;36284;37.236;-121.934;2024-03-02T14:44:05;7.10;99.90
20200;DHT22;36284;37.236;-121.934;2024-03-02T14:46:32;7.00;99.90
20200;DHT22;36284;37.236;-121.934;2024-03-02T14:49:00;7.10;99.90
20200;DHT22;36284;37.236;-121.934;2024-03-02T14:51:27;7.20;99.90
20200;DHT22;36284;37.236;-121.934;2024-03-02T14:53:56;7.30;99.90
20200;DHT22;36284;37.236;-121.934;2024-03-02T14:56:23;7.20;99.90
20200;DHT22;36284;37.236;-121.934;2024-03-02T14:58:50;7.30;99.90
20200;DHT22;36284;37.236;-121.934;2024-03-02T15:01:17;7.50;99.90
20200;DHT22;36284;37.236;-121.934;2024-03-02T15:03:45;7.50;99.90
20200;DHT22;36284;37.236;-121.934;2024-03-02T15:06:12;7.50;99.90
20200;DHT22;36284;37.236;-121.934;2024-03-02T15:08:39;7.40;99.90
20200;DHT22;36284;37.236;-121.934;2024-03-02T15:11:08;7.40;99.90
20200;DHT22;36284;37.236;-121.934;2024-03-02T15:13:35;7.60;99.90
20200;DHT22;36284;37.236;-121.934;2024-03-02T15:16:02;7.70;99.90
20200;DHT22;36284;37.236;-121.934;2024-03-02T15:18:29;7.70;99.90
20200;DHT22;36284;37.236;-121.934;2024-03-02T15:20:57;8.00;99.90
20200;DHT22;36284;37.236;-121.934;2024-03-02T15:23:23;8.50;99.90